Time;durP1;ratioP1;P1;durP2;ratioP2;P2;SDS_P1;SDS_P2;PMS_P1;PMS_P2;Temp;Humidity;BMP_temperature;BMP_pressure;BME280_temperature;BME280_humidity;BME280_pressure;Samples;Min_cycle;Max_cycle;Signal;HPM_P1;HPM_P2
2021/03/05 00:00:23;;;;;;;45.22;33.55;;;11.30;68.80;;;;;;5055490;28;20119;-74
2021/03/05 00:02:49;;;;;;;49.38;33.83;;;11.30;68.80;;;;;;5055250;28;20539;-74
2021/03/05 00:05:15;;;;;;;42.70;32.70;;;11.30;68.80;;;;;;5055098;28;20063;-74
2021/03/05 00:07:41;;;;;;;44.50;32.85;;;11.30;68.80;;;;;;5055327;28;20025;-74
2021/03/05 00:10:10;;;;;;;44.05;31.90;;;11.30;69.00;;;;;;5055034;28;20473;-74
2021/03/05 00:12:37;;;;;;;43.60;32.45;;;11.20;68.80;;;;;;5054096;28;20028;-74
2021/03/05 00:15:04;;;;;;;44.10;32.70;;;11.20;68.80;;;;;;5055263;28;20037;-74
2021/03/05 00:17:30;;;;;;;41.00;31.58;;;11.30;68.80;;;;;;5054796;28;20377;-74
2021/03/05 00:19:56;;;;;;;44.08;31.60;;;11.20;69.40;;;;;;5054930;28;20029;-74
2021/03/05 00:22:22;;;;;;;43.80;31.10;;;11.20;68.80;;;;;;5055127;28;20029;-74
2021/03/05 00:24:47;;;;;;;43.92;32.88;;;11.10;69.00;;;;;;5054963;28;20060;-74
2021/03/05 00:27:13;;;;;;;38.75;31.80;;;11.00;69.20;;;;;;5054731;28;20029;-74
2021/03/05 00:29:39;;;;;;;52.65;32.20;;;11.00;69.20;;;;;;5054844;28;20029;-74
2021/03/05 00:32:05;;;;;;;48.78;32.25;;;10.90;69.30;;;;;;5053460;28;20080;-74
2021/03/05 00:34:30;;;;;;;44.55;31.77;;;11.00;69.50;;;;;;5051984;28;20043;-74
2021/03/05 00:36:56;;;;;;;41.10;30.92;;;11.00;69.50;;;;;;5052194;28;20036;-74
2021/03/05 00:39:22;;;;;;;40.93;29.93;;;11.00;69.30;;;;;;5053343;28;20033;-73
2021/03/05 00:41:47;;;;;;;39.95;31.25;;;11.00;68.90;;;;;;5054400;28;20028;-74
2021/03/05 00:44:13;;;;;;;44.08;30.77;;;11.00;68.50;;;;;;5054622;28;20028;-73
2021/03/05 00:46:39;;;;;;;45.70;31.45;;;11.00;68.50;;;;;;5054587;28;20025;-74
2021/03/05 00:49:04;;;;;;;40.90;30.90;;;11.00;68.40;;;;;;5054308;28;20116;-74
2021/03/05 00:51:30;;;;;;;45.85;31.90;;;11.00;68.90;;;;;;5054778;28;20025;-74
2021/03/05 00:53:56;;;;;;;43.22;30.80;;;11.00;68.20;;;;;;5054229;28;20048;-74
2021/03/05 00:56:21;;;;;;;46.17;31.95;;;10.90;68.20;;;;;;5053077;28;20060;-74
2021/03/05 00:58:47;;;;;;;43.97;31.73;;;10.90;68.40;;;;;;5054001;28;20440;-74
2021/03/05 01:01:12;;;;;;;41.58;31.38;;;10.90;68.60;;;;;;5054174;28;20382;-74
2021/03/05 01:03:38;;;;;;;45.50;32.25;;;10.90;68.50;;;;;;5054150;28;20461;-74
2021/03/05 01:06:04;;;;;;;42.22;31.60;;;10.90;68.60;;;;;;5054118;28;20477;-74
2021/03/05 01:08:30;;;;;;;44.63;31.20;;;10.90;68.60;;;;;;5054106;28;20026;-73
2021/03/05 01:10:56;;;;;;;41.95;31.15;;;10.90;68.80;;;;;;5053835;28;20036;-74
2021/03/05 01:13:22;;;;;;;44.53;31.83;;;10.90;69.00;;;;;;5054086;28;20021;-79
2021/03/05 01:15:48;;;;;;;41.53;31.35;;;10.90;69.20;;;;;;5053799;28;20040;-78
2021/03/05 01:18:14;;;;;;;46.20;32.35;;;10.90;69.10;;;;;;5053950;28;20086;-73
2021/03/05 01:20:40;;;;;;;48.42;31.73;;;10.90;69.10;;;;;;5054050;28;20048;-73
2021/03/05 01:23:06;;;;;;;45.72;31.48;;;10.90;69.00;;;;;;5053755;28;20431;-73
2021/03/05 01:25:33;;;;;;;42.10;30.27;;;10.90;69.00;;;;;;5053777;28;20037;-74
2021/03/05 01:28:21;;;;;;;41.30;31.15;;;10.90;69.20;;;;;;4893170;28;20092;-75
2021/03/05 01:30:51;;;;;;;40.97;30.80;;;10.90;69.30;;;;;;5047255;28;20060;-74
2021/03/05 01:33:16;;;;;;;44.47;32.70;;;10.90;69.40;;;;;;5053715;28;20098;-74
2021/03/05 01:35:42;;;;;;;47.40;33.90;;;10.80;69.40;;;;;;5053450;28;20179;-73
2021/03/05 01:38:08;;;;;;;45.75;33.00;;;10.90;69.80;;;;;;5053656;28;20100;-74
2021/03/05 01:40:37;;;;;;;49.67;34.13;;;10.90;69.90;;;;;;5053537;28;20032;-74
2021/03/05 01:43:10;;;;;;;45.53;32.95;;;10.80;69.80;;;;;;5053202;28;20028;-74
2021/03/05 01:45:38;;;;;;;48.88;34.75;;;10.80;69.90;;;;;;5052310;28;20500;-74
2021/03/05 01:48:18;;;;;;;43.33;32.92;;;10.80;70.00;;;;;;5052105;28;20377;-77
2021/03/05 01:50:59;;;;;;;46.95;33.92;;;10.80;70.10;;;;;;5053255;28;20037;-74
2021/03/05 01:53:27;;;;;;;43.70;32.85;;;10.80;70.40;;;;;;5053189;28;20028;-74
2021/03/05 01:55:53;;;;;;;46.90;32.80;;;10.80;70.40;;;;;;5053220;28;20076;-74
2021/03/05 01:58:20;;;;;;;52.50;33.15;;;10.90;70.50;;;;;;5051540;28;20029;-74
2021/03/05 02:00:50;;;;;;;40.90;31.65;;;10.90;70.60;;;;;;5050309;28;20540;-73
2021/03/05 02:03:15;;;;;;;44.88;32.80;;;10.90;70.70;;;;;;5050766;28;20158;-74
2021/03/05 02:05:41;;;;;;;45.88;33.38;;;10.90;70.70;;;;;;5052445;28;20100;-74
2021/03/05 02:08:10;;;;;;;47.70;33.97;;;10.80;70.80;;;;;;5052758;28;20381;-74
2021/03/05 02:10:37;;;;;;;47.05;32.55;;;10.80;70.80;;;;;;5053086;28;20037;-78
2021/03/05 02:13:03;;;;;;;44.85;32.85;;;10.80;70.80;;;;;;5052649;28;20505;-73
2021/03/05 02:15:32;;;;;;;46.15;31.95;;;10.80;70.90;;;;;;5052805;28;20036;-73
2021/03/05 02:18:00;;;;;;;42.30;31.60;;;10.80;70.90;;;;;;5052796;28;20025;-74
2021/03/05 02:21:27;;;;;;;45.40;31.95;;;10.80;70.90;;;;;;5052675;28;20370;-73
2021/03/05 02:24:23;;;;;;;40.75;31.33;;;10.80;70.90;;;;;;5052533;28;20020;-74
2021/03/05 02:26:59;;;;;;;42.53;30.52;;;10.70;70.90;;;;;;5052946;28;20048;-73
2021/03/05 02:29:49;;;;;;;39.60;31.00;;;10.80;71.10;;;;;;5052623;28;20060;-74
2021/03/05 02:32:28;;;;;;;41.60;31.00;;;10.80;71.00;;;;;;5052840;28;20025;-73
2021/03/05 02:34:54;;;;;;;40.28;31.95;;;10.80;70.80;;;;;;5053465;28;20037;-73
2021/03/05 02:37:23;;;;;;;40.15;30.10;;;10.80;70.90;;;;;;5055436;28;20381;-73
2021/03/05 02:40:06;;;;;;;41.67;31.08;;;10.80;70.90;;;;;;5056869;28;20021;-73
2021/03/05 02:42:43;;;;;;;38.75;29.65;;;10.80;71.00;;;;;;5056679;28;20027;-73
2021/03/05 02:45:13;;;;;;;44.40;30.25;;;10.80;71.00;;;;;;5056713;28;20431;-73
2021/03/05 02:47:42;;;;;;;42.75;31.35;;;10.80;70.40;;;;;;5055535;28;20432;-73
2021/03/05 02:50:10;;;;;;;37.78;30.17;;;10.80;70.50;;;;;;5056349;28;20130;-75
2021/03/05 02:52:38;;;;;;;40.55;31.05;;;10.70;70.70;;;;;;5056776;28;20373;-73
2021/03/05 02:55:05;;;;;;;41.55;30.02;;;10.80;71.00;;;;;;5056459;28;20045;-74
2021/03/05 02:57:36;;;;;;;48.15;31.48;;;10.80;71.00;;;;;;5056399;28;20022;-74
2021/03/05 03:00:05;;;;;;;41.25;30.13;;;10.80;71.00;;;;;;5056767;28;20143;-74
2021/03/05 03:02:33;;;;;;;40.58;31.10;;;10.70;70.90;;;;;;5056196;28;20440;-74
2021/03/05 03:04:59;;;;;;;46.00;30.23;;;10.70;70.80;;;;;;5056501;28;20098;-74
2021/03/05 03:07:26;;;;;;;43.10;31.13;;;10.70;70.70;;;;;;5056341;28;20484;-74
2021/03/05 03:09:52;;;;;;;43.13;31.05;;;10.70;70.60;;;;;;5056589;28;20017;-74
2021/03/05 03:12:19;;;;;;;40.60;29.58;;;10.70;70.60;;;;;;5056166;28;20035;-74
2021/03/05 03:14:47;;;;;;;43.20;30.97;;;10.70;70.50;;;;;;5056176;28;20488;-74
2021/03/05 03:17:14;;;;;;;40.93;30.03;;;10.60;70.30;;;;;;5056171;28;20036;-74
2021/03/05 03:19:47;;;;;;;43.83;30.52;;;10.60;70.40;;;;;;5056225;28;20067;-74
2021/03/05 03:22:13;;;;;;;42.20;29.58;;;10.60;70.30;;;;;;5054854;28;20074;-74
2021/03/05 03:24:39;;;;;;;42.53;29.73;;;10.60;70.30;;;;;;5056004;28;20013;-73
2021/03/05 03:27:05;;;;;;;41.65;30.20;;;10.60;70.50;;;;;;5055879;28;20025;-74
2021/03/05 03:29:30;;;;;;;41.27;30.63;;;10.60;70.60;;;;;;5056204;28;20100;-74
2021/03/05 03:31:56;;;;;;;41.50;30.33;;;10.60;70.50;;;;;;5056097;28;20036;-78
2021/03/05 03:34:22;;;;;;;38.50;30.10;;;10.50;70.50;;;;;;5056067;28;20044;-74
2021/03/05 03:36:50;;;;;;;41.10;31.73;;;10.50;70.60;;;;;;5055515;28;20090;-74
2021/03/05 03:39:16;;;;;;;44.47;31.57;;;10.50;70.90;;;;;;5055875;28;20017;-77
2021/03/05 03:41:42;;;;;;;39.20;30.35;;;10.40;70.90;;;;;;5055910;28;20093;-74
2021/03/05 03:44:11;;;;;;;42.17;29.88;;;10.40;71.30;;;;;;5055841;28;20032;-74
2021/03/05 03:46:39;;;;;;;44.10;31.23;;;10.40;71.60;;;;;;5054501;28;20096;-74
2021/03/05 03:49:15;;;;;;;39.58;30.60;;;10.40;71.80;;;;;;5055756;28;20025;-74
2021/03/05 03:51:50;;;;;;;41.00;31.03;;;10.40;71.80;;;;;;5055618;28;20017;-74
2021/03/05 03:54:17;;;;;;;38.78;30.88;;;10.40;72.00;;;;;;5055401;28;20053;-78
2021/03/05 03:56:45;;;;;;;43.47;31.15;;;10.40;72.40;;;;;;5055301;28;20036;-74
2021/03/05 03:59:15;;;;;;;44.03;31.80;;;10.40;72.60;;;;;;5055604;28;20100;-74
2021/03/05 04:01:44;;;;;;;43.00;31.30;;;10.40;72.70;;;;;;5055529;28;20029;-74
2021/03/05 04:04:12;;;;;;;46.95;33.30;;;10.40;72.70;;;;;;5055689;28;20021;-74
2021/03/05 04:06:39;;;;;;;40.67;31.48;;;10.40;72.50;;;;;;5055373;28;20025;-74
2021/03/05 04:09:05;;;;;;;42.40;31.27;;;10.40;72.30;;;;;;5055343;28;20021;-74
2021/03/05 04:11:33;;;;;;;41.13;31.55;;;10.40;72.50;;;;;;5055283;28;20047;-74
2021/03/05 04:13:58;;;;;;;42.42;32.13;;;10.40;72.30;;;;;;5055390;28;20021;-74
2021/03/05 04:16:24;;;;;;;43.83;32.60;;;10.30;72.10;;;;;;5055349;28;20543;-74
2021/03/05 04:18:52;;;;;;;48.60;32.50;;;10.30;71.90;;;;;;5055117;28;20496;-73
2021/03/05 04:21:26;;;;;;;44.80;32.22;;;10.30;72.00;;;;;;5055076;28;20060;-74
2021/03/05 04:23:51;;;;;;;41.90;31.05;;;10.30;72.10;;;;;;5055277;28;20031;-74
2021/03/05 04:26:17;;;;;;;37.45;30.05;;;10.30;72.20;;;;;;5055138;28;20389;-74
2021/03/05 04:28:43;;;;;;;41.88;30.83;;;10.30;72.50;;;;;;5054978;28;20075;-74
2021/03/05 04:31:08;;;;;;;42.03;31.17;;;10.30;72.60;;;;;;5054900;28;20420;-74
2021/03/05 04:33:35;;;;;;;50.50;32.40;;;10.30;72.60;;;;;;5055217;28;20025;-74
2021/03/05 04:36:02;;;;;;;42.93;30.23;;;10.40;72.70;;;;;;5054888;28;20033;-74
2021/03/05 04:38:28;;;;;;;41.30;30.60;;;10.40;72.60;;;;;;5055015;28;20025;-74
2021/03/05 04:40:53;;;;;;;40.97;30.60;;;10.30;72.20;;;;;;5054948;28;20423;-74
2021/03/05 04:43:19;;;;;;;40.97;30.90;;;10.30;72.40;;;;;;5054741;28;20503;-74
2021/03/05 04:45:45;;;;;;;44.10;32.73;;;10.20;72.50;;;;;;5054691;28;20036;-74
2021/03/05 04:48:11;;;;;;;43.23;32.73;;;10.20;72.30;;;;;;5054705;28;20029;-74
2021/03/05 04:50:36;;;;;;;39.80;31.20;;;10.20;72.50;;;;;;5055409;28;20053;-74
2021/03/05 04:53:03;;;;;;;44.97;32.07;;;10.20;72.70;;;;;;5054416;28;20029;-74
2021/03/05 04:55:29;;;;;;;39.53;31.50;;;10.20;72.60;;;;;;5054538;28;20080;-74
2021/03/05 04:57:54;;;;;;;40.15;30.15;;;10.20;72.70;;;;;;5054074;28;20030;-74
2021/03/05 05:00:20;;;;;;;48.72;31.27;;;10.20;72.70;;;;;;5054544;28;20033;-74
2021/03/05 05:02:46;;;;;;;46.10;30.37;;;10.30;72.80;;;;;;5054513;28;20075;-78
2021/03/05 05:05:12;;;;;;;43.10;30.15;;;10.30;72.70;;;;;;5054367;28;20021;-74
2021/03/05 05:07:38;;;;;;;41.30;29.70;;;10.30;72.60;;;;;;5054287;28;20133;-74
2021/03/05 05:10:04;;;;;;;39.55;29.88;;;10.30;72.50;;;;;;5054278;28;20432;-74
2021/03/05 05:12:29;;;;;;;50.13;30.83;;;10.30;72.20;;;;;;5054242;28;20025;-74
2021/03/05 05:14:55;;;;;;;41.93;30.50;;;10.30;72.10;;;;;;5054070;28;20112;-74
2021/03/05 05:17:21;;;;;;;39.43;29.73;;;10.30;72.20;;;;;;5054260;28;20116;-74
2021/03/05 05:19:46;;;;;;;44.40;30.93;;;10.30;72.20;;;;;;5054348;28;20040;-74
2021/03/05 05:22:12;;;;;;;40.00;29.20;;;10.30;72.10;;;;;;5053933;28;20033;-74
2021/03/05 05:24:38;;;;;;;43.90;29.05;;;10.40;72.20;;;;;;5054069;28;20029;-74
2021/03/05 05:27:04;;;;;;;53.93;31.53;;;10.40;72.20;;;;;;5053688;28;20114;-74
2021/03/05 05:29:30;;;;;;;50.43;29.70;;;10.30;72.10;;;;;;5053913;28;20493;-74
2021/03/05 05:31:56;;;;;;;47.83;30.80;;;10.30;72.60;;;;;;5054049;28;20104;-74
2021/03/05 05:34:22;;;;;;;46.27;29.77;;;10.30;71.60;;;;;;5053838;28;20484;-74
2021/03/05 05:36:47;;;;;;;51.00;30.93;;;10.30;71.40;;;;;;5053740;28;20511;-74
2021/03/05 05:39:13;;;;;;;44.53;29.97;;;10.30;71.60;;;;;;5053637;28;20025;-75
2021/03/05 05:41:42;;;;;;;40.83;29.30;;;10.30;71.80;;;;;;5053422;28;20021;-74
2021/03/05 05:44:08;;;;;;;41.13;29.57;;;10.20;71.80;;;;;;5053709;28;20096;-74
2021/03/05 05:46:35;;;;;;;50.88;30.50;;;10.20;71.80;;;;;;5053577;28;20044;-74
2021/03/05 05:49:03;;;;;;;42.40;30.27;;;10.30;71.90;;;;;;5053424;28;20067;-74
2021/03/05 05:51:32;;;;;;;44.43;30.13;;;10.20;72.00;;;;;;5053335;28;20036;-73
2021/03/05 05:54:03;;;;;;;44.03;29.10;;;10.20;72.00;;;;;;5053229;28;20077;-73
2021/03/05 05:56:30;;;;;;;37.70;29.37;;;10.20;72.00;;;;;;5053415;28;20404;-73
2021/03/05 05:58:56;;;;;;;43.23;28.60;;;10.20;72.00;;;;;;5053303;28;20021;-73
2021/03/05 06:01:22;;;;;;;40.25;29.42;;;10.20;72.00;;;;;;5053408;28;20049;-74
2021/03/05 06:03:48;;;;;;;41.67;27.87;;;10.20;71.50;;;;;;5053519;28;20434;-78
2021/03/05 06:06:15;;;;;;;36.20;28.67;;;10.20;71.60;;;;;;5053390;28;20033;-74
2021/03/05 06:08:40;;;;;;;40.83;28.80;;;10.10;71.50;;;;;;5053268;28;20100;-74
2021/03/05 06:11:06;;;;;;;47.37;29.50;;;10.10;71.70;;;;;;5052483;28;20452;-77
2021/03/05 06:13:32;;;;;;;45.07;29.67;;;10.10;71.80;;;;;;5053221;28;20508;-74
2021/03/05 06:16:17;;;;;;;44.67;29.03;;;10.10;71.80;;;;;;5053499;28;20124;-73
2021/03/05 06:18:44;;;;;;;38.73;29.83;;;10.00;71.60;;;;;;5051771;28;20127;-73
2021/03/05 06:21:10;;;;;;;39.07;29.23;;;10.00;71.70;;;;;;5053016;28;20049;-73
2021/03/05 06:23:56;;;;;;;37.60;27.30;;;10.00;71.80;;;;;;5052828;28;20028;-74
2021/03/05 06:26:22;;;;;;;46.57;29.37;;;10.00;71.90;;;;;;5052788;28;20047;-74
2021/03/05 06:29:05;;;;;;;45.40;30.43;;;10.00;72.00;;;;;;5052880;28;20025;-74
2021/03/05 06:31:31;;;;;;;;;;;10.00;72.00;;;;;;5053407;28;20049;-74
2021/03/05 06:33:59;;;;;;;42.00;29.00;;;10.00;72.10;;;;;;5053056;28;19904;-73
2021/03/05 06:36:25;;;;;;;40.10;29.17;;;10.00;71.90;;;;;;5052992;28;20044;-74
2021/03/05 06:38:52;;;;;;;49.57;30.50;;;10.00;72.00;;;;;;5052574;28;20029;-74
2021/03/05 06:41:27;;;;;;;43.17;30.23;;;10.00;72.10;;;;;;5052649;28;20060;-74
2021/03/05 06:43:55;;;;;;;48.63;30.80;;;10.00;72.20;;;;;;5052816;28;20020;-74
2021/03/05 06:46:38;;;;;;;48.13;32.40;;;10.00;72.40;;;;;;5052520;28;20017;-74
2021/03/05 06:49:10;;;;;;;45.03;31.05;;;10.00;72.60;;;;;;5052691;28;20120;-73
2021/03/05 06:51:36;;;;;;;38.63;29.20;;;10.10;72.80;;;;;;5052853;28;20032;-74
2021/03/05 06:54:10;;;;;;;40.67;28.90;;;10.10;72.80;;;;;;5052297;28;20091;-75
2021/03/05 06:56:38;;;;;;;45.73;29.90;;;10.10;72.90;;;;;;5052409;28;20029;-74
2021/03/05 06:59:07;;;;;;;41.13;28.87;;;10.10;73.10;;;;;;5055991;28;20453;-74
2021/03/05 07:01:47;;;;;;;44.67;29.57;;;10.20;73.20;;;;;;5052965;28;20074;-77
2021/03/05 07:04:16;;;;;;;46.00;31.03;;;10.20;73.30;;;;;;5052325;28;20021;-74
2021/03/05 07:06:42;;;;;;;44.27;32.83;;;10.20;73.40;;;;;;5051085;28;20053;-74
2021/03/05 07:09:10;;;;;;;46.83;31.53;;;10.20;73.40;;;;;;5052200;28;20393;-74
2021/03/05 07:11:35;;;;;;;41.13;30.33;;;10.20;73.60;;;;;;5052420;28;20036;-74
2021/03/05 07:14:03;;;;;;;46.20;31.97;;;10.30;73.50;;;;;;5052319;28;20017;-74
2021/03/05 07:16:43;;;;;;;46.28;31.13;;;10.30;73.40;;;;;;5052306;28;20036;-74
2021/03/05 07:19:11;;;;;;;45.40;31.67;;;10.30;73.60;;;;;;5052493;28;20047;-74
2021/03/05 07:21:39;;;;;;;40.47;31.92;;;10.40;73.50;;;;;;5054194;28;20090;-74
2021/03/05 07:24:10;;;;;;;47.88;32.47;;;10.40;73.40;;;;;;5056302;28;20362;-77
2021/03/05 07:26:43;;;;;;;46.07;31.40;;;10.40;73.40;;;;;;5055975;28;20028;-74
2021/03/05 07:29:17;;;;;;;41.25;30.50;;;10.40;73.40;;;;;;5056271;28;20032;-74
2021/03/05 07:31:44;;;;;;;41.10;31.00;;;10.40;73.50;;;;;;5056577;28;20036;-74
2021/03/05 07:34:16;;;;;;;48.17;34.93;;;10.40;73.70;;;;;;5056278;28;20025;-74
2021/03/05 07:36:48;;;;;;;48.03;32.95;;;10.50;73.90;;;;;;5056364;28;20056;-74
2021/03/05 07:39:23;;;;;;;46.15;29.63;;;10.50;73.80;;;;;;5053810;28;20029;-72
2021/03/05 07:41:52;;;;;;;45.37;30.40;;;10.60;73.40;;;;;;5053020;28;20032;-72
2021/03/05 07:44:18;;;;;;;54.40;29.07;;;10.60;73.10;;;;;;5053176;28;20021;-72
2021/03/05 07:46:45;;;;;;;46.20;30.45;;;10.60;72.90;;;;;;5055419;28;20078;-73
2021/03/05 07:49:11;;;;;;;48.20;29.48;;;10.60;72.80;;;;;;5055810;28;20496;-73
2021/03/05 07:51:38;;;;;;;44.65;30.83;;;10.70;72.80;;;;;;5055765;28;20028;-71
2021/03/05 07:54:05;;;;;;;49.00;30.33;;;10.70;72.80;;;;;;5055351;28;20374;-72
2021/03/05 07:56:49;;;;;;;50.72;29.52;;;10.70;72.70;;;;;;5055636;28;20037;-68
2021/03/05 07:59:38;;;;;;;43.03;28.35;;;10.80;72.60;;;;;;5055671;28;20482;-73
2021/03/05 08:02:04;;;;;;;50.20;31.90;;;10.80;72.60;;;;;;5047464;28;20124;-74
2021/03/05 08:04:48;;;;;;;43.72;29.15;;;10.80;72.60;;;;;;5055221;28;20102;-72
2021/03/05 08:07:15;;;;;;;47.03;30.10;;;10.80;72.80;;;;;;5055219;28;20032;-72
2021/03/05 08:09:41;;;;;;;39.88;29.48;;;10.80;72.90;;;;;;5053132;28;20381;-72
2021/03/05 08:12:33;;;;;;;45.53;29.58;;;10.80;72.90;;;;;;5052114;28;20512;-72
2021/03/05 08:15:05;;;;;;;51.20;32.50;;;10.90;72.90;;;;;;5052234;28;20109;-72
2021/03/05 08:17:32;;;;;;;39.97;30.70;;;10.80;73.20;;;;;;5052990;28;20403;-72
2021/03/05 08:19:57;;;;;;;44.85;31.67;;;10.90;73.50;;;;;;5055035;28;20036;-72
2021/03/05 08:22:23;;;;;;;46.05;30.13;;;10.80;73.60;;;;;;5054889;28;20021;-72
2021/03/05 08:24:49;;;;;;;49.83;30.95;;;10.80;73.70;;;;;;5055331;28;20025;-72
2021/03/05 08:27:36;;;;;;;41.50;30.02;;;10.80;73.50;;;;;;5070671;28;20107;-72
2021/03/05 08:30:12;;;;;;;44.83;29.70;;;10.80;73.50;;;;;;5054786;28;20063;-72
2021/03/05 08:32:54;;;;;;;44.30;29.30;;;10.90;73.50;;;;;;5054236;28;20021;-72
2021/03/05 08:35:29;;;;;;;41.80;29.30;;;10.90;73.40;;;;;;5053803;28;20036;-72
2021/03/05 08:37:58;;;;;;;46.13;29.17;;;11.00;73.20;;;;;;5054702;28;20544;-72
2021/03/05 08:40:27;;;;;;;46.88;30.10;;;11.00;73.00;;;;;;5054928;28;20056;-73
2021/03/05 08:42:55;;;;;;;41.45;29.88;;;11.00;72.90;;;;;;5054616;28;20025;-72
2021/03/05 08:45:29;;;;;;;45.08;28.50;;;11.10;72.80;;;;;;5053467;28;20083;-73
2021/03/05 08:47:56;;;;;;;47.60;30.33;;;11.10;72.40;;;;;;5054739;28;20466;-74
2021/03/05 08:50:29;;;;;;;40.25;27.60;;;11.20;72.30;;;;;;5054076;28;20104;-73
2021/03/05 08:52:55;;;;;;;37.58;28.20;;;11.20;72.20;;;;;;5054566;28;20466;-74
2021/03/05 08:55:21;;;;;;;39.03;27.88;;;11.20;72.10;;;;;;5054347;28;20041;-75
2021/03/05 08:57:57;;;;;;;40.58;27.70;;;11.30;71.90;;;;;;5054305;28;20024;-73
2021/03/05 09:00:28;;;;;;;37.13;25.25;;;11.40;71.90;;;;;;5054644;28;20032;-72
2021/03/05 09:03:05;;;;;;;30.08;24.00;;;11.40;71.80;;;;;;5054326;28;20373;-72
2021/03/05 09:05:36;;;;;;;42.70;24.65;;;11.40;71.80;;;;;;5054859;28;20441;-71
2021/03/05 09:08:02;;;;;;;29.58;22.88;;;11.50;71.80;;;;;;5055480;28;20021;-71
2021/03/05 09:10:52;;;;;;;38.35;24.40;;;11.50;71.90;;;;;;5054448;28;20497;-73
2021/03/05 09:13:35;;;;;;;29.38;22.23;;;11.60;71.80;;;;;;5053423;28;20461;-73
2021/03/05 09:16:03;;;;;;;32.50;21.67;;;11.60;71.80;;;;;;5052315;28;20412;-75
2021/03/05 09:18:33;;;;;;;38.25;21.08;;;11.60;72.00;;;;;;5053322;28;20111;-74
2021/03/05 09:21:00;;;;;;;35.05;22.05;;;11.60;72.00;;;;;;5052461;28;20431;-75
2021/03/05 09:23:37;;;;;;;37.92;22.60;;;11.70;71.80;;;;;;5052078;28;20046;-77
2021/03/05 09:26:03;;;;;;;33.85;22.90;;;11.70;71.70;;;;;;5053212;28;20071;-72
2021/03/05 09:29:03;;;;;;;35.80;20.55;;;11.70;72.10;;;;;;5051964;28;20025;-79
2021/03/05 09:31:29;;;;;;;30.60;21.15;;;11.80;71.90;;;;;;5052156;28;20028;-73
2021/03/05 09:33:57;;;;;;;27.13;20.25;;;11.90;71.90;;;;;;5051772;28;20210;-72
2021/03/05 09:36:23;;;;;;;31.40;20.13;;;11.90;72.20;;;;;;5050457;28;20115;-71
2021/03/05 09:39:08;;;;;;;31.88;19.98;;;12.00;72.10;;;;;;5050764;28;20029;-71
2021/03/05 09:41:33;;;;;;;32.88;20.85;;;12.10;71.80;;;;;;5051541;28;20162;-71
2021/03/05 09:44:00;;;;;;;31.65;20.35;;;12.20;72.10;;;;;;5052316;28;20108;-71
2021/03/05 09:46:37;;;;;;;33.65;20.23;;;12.30;71.80;;;;;;5053149;28;20479;-79
2021/03/05 09:49:23;;;;;;;26.80;19.55;;;12.30;71.70;;;;;;5052213;28;20118;-71
2021/03/05 09:51:49;;;;;;;24.38;19.58;;;12.30;71.70;;;;;;5051353;28;20036;-72
2021/03/05 09:54:17;;;;;;;31.30;20.55;;;12.30;71.60;;;;;;5050866;28;20045;-72
2021/03/05 09:56:45;;;;;;;34.33;20.58;;;12.30;71.70;;;;;;5050437;28;20123;-72
2021/03/05 09:59:11;;;;;;;27.58;19.75;;;12.40;72.00;;;;;;5049258;28;20040;-73
2021/03/05 10:01:43;;;;;;;28.55;21.50;;;12.40;71.80;;;;;;5052093;28;20029;-72
2021/03/05 10:04:11;;;;;;;29.95;19.98;;;12.40;71.80;;;;;;5053164;28;20021;-73
2021/03/05 10:06:37;;;;;;;29.98;21.00;;;12.40;71.50;;;;;;5053294;28;20036;-73
2021/03/05 10:09:03;;;;;;;28.58;20.02;;;12.40;71.90;;;;;;5051131;28;20021;-75
2021/03/05 10:11:39;;;;;;;33.80;20.17;;;12.40;72.10;;;;;;5052949;28;20104;-72
2021/03/05 10:14:22;;;;;;;30.08;21.27;;;12.50;71.80;;;;;;5053331;28;20154;-73
2021/03/05 10:16:47;;;;;;;35.08;23.90;;;12.60;71.60;;;;;;5053204;28;20072;-72
2021/03/05 10:19:14;;;;;;;34.42;23.27;;;12.80;71.20;;;;;;5053034;28;20474;-73
2021/03/05 10:21:45;;;;;;;36.63;25.00;;;12.90;70.70;;;;;;5052209;28;20025;-73
2021/03/05 10:24:13;;;;;;;33.40;22.98;;;13.00;70.70;;;;;;5050178;28;20028;-72
2021/03/05 10:27:23;;;;;;;34.47;24.00;;;13.00;70.30;;;;;;5050403;28;20099;-72
2021/03/05 10:29:37;;;;;;;35.95;23.60;;;13.00;70.00;;;;;;5043722;28;20040;-72
2021/03/05 10:32:03;;;;;;;34.92;21.70;;;13.00;69.90;;;;;;5053161;28;20033;-72
2021/03/05 10:34:31;;;;;;;33.88;22.55;;;13.00;70.00;;;;;;5053019;28;20036;-72
2021/03/05 10:37:02;;;;;;;33.55;24.40;;;13.00;69.90;;;;;;5051244;28;20044;-72
2021/03/05 10:39:32;;;;;;;35.88;23.98;;;13.10;69.90;;;;;;5052722;28;20036;-72
2021/03/05 10:42:02;;;;;;;36.47;23.85;;;13.00;69.40;;;;;;5052765;28;20067;-72
2021/03/05 10:44:31;;;;;;;45.28;25.65;;;13.00;69.20;;;;;;5052507;28;20029;-72
2021/03/05 10:47:01;;;;;;;34.83;25.05;;;13.00;69.10;;;;;;5052460;28;20101;-72
2021/03/05 10:49:28;;;;;;;33.47;25.20;;;13.00;69.20;;;;;;5052712;28;20056;-71
2021/03/05 10:51:54;;;;;;;37.25;26.15;;;13.10;69.50;;;;;;5052618;28;20013;-72
2021/03/05 10:54:20;;;;;;;40.28;28.23;;;13.20;69.70;;;;;;5052136;28;20110;-72
2021/03/05 10:56:50;;;;;;;41.45;28.60;;;13.30;69.00;;;;;;5054579;28;20037;-72
2021/03/05 10:59:19;;;;;;;43.25;29.10;;;13.40;68.80;;;;;;5056635;28;20408;-72
2021/03/05 11:01:45;;;;;;;39.97;28.58;;;13.40;68.20;;;;;;5056748;28;20032;-73
2021/03/05 11:04:11;;;;;;;47.35;30.35;;;13.50;68.20;;;;;;5056632;28;20067;-74
2021/03/05 11:06:37;;;;;;;65.63;34.55;;;13.50;67.60;;;;;;5056152;28;20017;-73
2021/03/05 11:09:05;;;;;;;49.45;39.35;;;13.50;67.80;;;;;;5054880;28;20021;-73
2021/03/05 11:11:31;;;;;;;58.83;41.10;;;13.50;67.10;;;;;;5056250;28;20025;-73
2021/03/05 11:13:57;;;;;;;60.22;42.08;;;13.50;66.80;;;;;;5056237;28;20036;-75
2021/03/05 11:16:23;;;;;;;59.85;41.75;;;13.50;65.90;;;;;;5056133;28;20029;-78
2021/03/05 11:18:48;;;;;;;56.20;42.40;;;13.50;65.80;;;;;;5055732;28;20099;-75
2021/03/05 11:21:15;;;;;;;57.88;41.85;;;13.50;65.30;;;;;;5055502;28;20052;-74
2021/03/05 11:23:41;;;;;;;54.85;41.53;;;13.40;65.30;;;;;;5054549;28;20032;-74
2021/03/05 11:26:07;;;;;;;62.38;44.13;;;13.40;65.20;;;;;;5056167;28;20574;-72
2021/03/05 11:28:33;;;;;;;63.95;42.88;;;13.40;65.10;;;;;;5055961;28;20025;-72
2021/03/05 11:30:58;;;;;;;51.97;42.10;;;13.40;64.10;;;;;;5055968;28;20032;-74
2021/03/05 11:33:24;;;;;;;59.53;42.25;;;13.30;64.20;;;;;;5056097;28;20036;-72
2021/03/05 11:35:50;;;;;;;60.97;42.40;;;13.20;64.50;;;;;;5055872;28;20040;-73
2021/03/05 11:38:15;;;;;;;61.30;43.85;;;13.20;64.70;;;;;;5055587;28;20040;-74
2021/03/05 11:40:41;;;;;;;59.55;44.25;;;13.20;64.00;;;;;;5056082;28;20061;-71
2021/03/05 11:43:07;;;;;;;54.58;43.28;;;13.20;63.70;;;;;;5055805;28;20466;-71
2021/03/05 11:45:33;;;;;;;61.40;44.72;;;13.20;63.50;;;;;;5055503;28;20544;-72
2021/03/05 11:47:58;;;;;;;59.78;44.55;;;13.10;63.40;;;;;;5055865;28;20031;-71
2021/03/05 11:50:24;;;;;;;58.03;44.65;;;13.10;64.00;;;;;;5055901;28;20096;-71
2021/03/05 11:52:50;;;;;;;65.15;46.22;;;13.10;63.80;;;;;;5055367;28;20467;-71
2021/03/05 11:55:15;;;;;;;67.20;45.95;;;13.00;64.10;;;;;;5055376;28;20103;-71
2021/03/05 11:57:41;;;;;;;63.63;46.10;;;13.10;64.30;;;;;;5055289;28;20064;-71
2021/03/05 12:00:08;;;;;;;66.30;46.15;;;13.20;64.20;;;;;;5055437;28;20083;-71
2021/03/05 12:02:34;;;;;;;70.22;46.53;;;13.20;64.10;;;;;;5055412;28;20029;-75
2021/03/05 12:05:00;;;;;;;59.72;46.97;;;13.30;63.90;;;;;;5055133;28;20029;-71
2021/03/05 12:07:25;;;;;;;66.75;47.35;;;13.50;63.60;;;;;;5052703;28;20025;-71
2021/03/05 12:09:52;;;;;;;65.13;45.38;;;13.60;63.00;;;;;;5055345;28;20067;-71
2021/03/05 12:12:18;;;;;;;62.05;47.22;;;13.90;62.60;;;;;;5055003;28;20025;-72
2021/03/05 12:14:44;;;;;;;71.30;49.65;;;14.00;61.80;;;;;;5055029;28;20071;-71
2021/03/05 12:17:10;;;;;;;64.07;46.00;;;14.20;58.20;;;;;;5054873;28;20083;-72
2021/03/05 12:19:36;;;;;;;66.40;46.72;;;14.20;58.50;;;;;;5054416;28;20025;-71
2021/03/05 12:22:02;;;;;;;62.67;45.70;;;14.30;58.50;;;;;;5040586;28;20029;-71
2021/03/05 12:24:28;;;;;;;62.90;48.28;;;14.40;58.60;;;;;;5032228;28;20029;-71
2021/03/05 12:26:54;;;;;;;66.38;48.47;;;14.40;57.10;;;;;;5032349;28;20091;-72
2021/03/05 12:29:20;;;;;;;64.18;46.15;;;14.40;57.20;;;;;;5033020;28;20025;-72
2021/03/05 12:31:46;;;;;;;61.60;45.13;;;14.40;57.70;;;;;;5034921;28;20030;-72
2021/03/05 12:34:11;;;;;;;61.65;45.70;;;14.60;58.40;;;;;;5034724;28;20402;-72
2021/03/05 12:36:37;;;;;;;64.63;46.08;;;14.70;56.50;;;;;;5035002;28;20038;-72